Time;durP1;ratioP1;P1;durP2;ratioP2;P2;SDS_P1;SDS_P2;PMS_P1;PMS_P2;Temp;Humidity;BMP_temperature;BMP_pressure;BME280_temperature;BME280_humidity;BME280_pressure;Samples;Min_cycle;Max_cycle;Signal;HPM_P1;HPM_P2
2023/02/06 00:00:45;;;;;;;1.52;1.00;;;;;;;19.38;37.45;104313.56;5055040;28;20043;-71
2023/02/06 00:03:11;;;;;;;1.30;1.20;;;;;;;19.46;37.24;104320.09;5056021;28;20067;-70
2023/02/06 00:05:36;;;;;;;1.45;1.10;;;;;;;19.44;37.22;104329.91;5056120;28;20617;-70
2023/02/06 00:08:02;;;;;;;1.88;1.15;;;;;;;19.45;37.30;104320.19;5060139;28;20024;-70
2023/02/06 00:10:28;;;;;;;1.13;0.98;;;;;;;19.40;37.45;104315.19;5055285;28;20048;-71
2023/02/06 00:12:53;;;;;;;1.15;1.05;;;;;;;19.42;37.35;104329.16;5056127;28;20044;-70
2023/02/06 00:15:19;;;;;;;1.95;1.20;;;;;;;19.47;37.13;104323.59;5049258;28;20041;-70
2023/02/06 00:17:44;;;;;;;1.17;1.00;;;;;;;19.39;37.32;104323.19;5057470;28;20386;-70
2023/02/06 00:20:11;;;;;;;1.10;1.02;;;;;;;19.37;37.45;104333.00;5055593;28;20040;-72
2023/02/06 00:22:36;;;;;;;1.70;1.20;;;;;;;19.38;37.34;104322.34;5054588;28;20490;-71
2023/02/06 00:25:03;;;;;;;0.75;0.75;;;;;;;19.35;37.35;104333.09;5054914;28;20123;-70
2023/02/06 00:27:28;;;;;;;1.30;1.00;;;;;;;19.34;37.44;104326.13;5056401;28;20040;-71
2023/02/06 00:29:54;;;;;;;0.70;0.70;;;;;;;19.29;37.68;104314.97;5051484;28;20052;-70
2023/02/06 00:32:19;;;;;;;0.65;0.65;;;;;;;19.31;37.42;104313.09;5054027;28;20056;-71
2023/02/06 00:34:48;;;;;;;1.05;0.93;;;;;;;19.35;37.41;104305.81;5055600;28;20044;-71
2023/02/06 00:37:13;;;;;;;0.90;0.82;;;;;;;19.32;37.34;104310.34;5055265;28;20379;-71
2023/02/06 00:39:39;;;;;;;1.10;1.00;;;;;;;19.29;37.43;104307.06;5055757;28;20055;-70
2023/02/06 00:42:05;;;;;;;1.27;1.17;;;;;;;19.26;37.40;104316.03;5052732;28;20060;-70
2023/02/06 00:44:31;;;;;;;0.98;0.93;;;;;;;19.17;37.51;104303.34;5052860;28;20466;-70
2023/02/06 00:46:57;;;;;;;1.25;1.10;;;;;;;19.25;37.44;104313.47;5055562;28;20044;-71
2023/02/06 00:49:23;;;;;;;1.58;1.10;;;;;;;19.18;37.59;104309.47;5051607;28;20170;-70
2023/02/06 00:51:49;;;;;;;1.65;1.20;;;;;;;19.28;37.40;104313.28;5055493;28;20044;-71
2023/02/06 00:54:15;;;;;;;1.30;1.20;;;;;;;19.21;37.43;104318.09;5058706;28;20033;-70
2023/02/06 00:56:41;;;;;;;1.10;1.00;;;;;;;19.23;37.40;104318.84;5062676;28;20672;-70
2023/02/06 00:59:06;;;;;;;0.73;0.73;;;;;;;19.22;37.31;104325.06;5051836;28;20033;-71
2023/02/06 01:01:32;;;;;;;0.82;0.80;;;;;;;19.16;37.38;104320.13;5062340;28;20485;-70
2023/02/06 01:03:57;;;;;;;1.42;1.08;;;;;;;19.21;37.40;104323.38;5052801;28;20104;-70
2023/02/06 01:06:23;;;;;;;1.08;0.77;;;;;;;19.14;37.47;104327.31;5041694;28;20037;-70
2023/02/06 01:08:50;;;;;;;0.77;0.77;;;;;;;19.12;37.44;104331.00;5055275;28;20043;-71
2023/02/06 01:11:21;;;;;;;0.93;0.85;;;;;;;19.15;37.52;104328.16;5056312;28;20044;-70
2023/02/06 01:13:46;;;;;;;1.23;1.00;;;;;;;19.14;37.51;104334.38;5058244;28;20033;-71
2023/02/06 01:16:21;;;;;;;1.02;0.90;;;;;;;19.16;37.42;104335.13;5059934;28;20040;-71
2023/02/06 01:18:47;;;;;;;1.10;1.00;;;;;;;19.15;37.53;104325.50;5058555;28;20147;-70
2023/02/06 01:21:15;;;;;;;1.08;0.93;;;;;;;19.07;37.49;104314.56;5056013;28;20132;-71
2023/02/06 01:23:42;;;;;;;1.40;1.08;;;;;;;19.18;37.21;104302.41;5056152;28;20028;-70
2023/02/06 01:26:11;;;;;;;2.20;1.23;;;;;;;19.12;37.39;104307.22;5056729;28;20814;-70
2023/02/06 01:28:38;;;;;;;1.38;1.05;;;;;;;19.03;37.59;104313.91;5061798;28;20095;-71
2023/02/06 01:31:25;;;;;;;0.73;0.70;;;;;;;19.00;37.55;104316.69;5060381;28;20024;-70
2023/02/06 01:33:51;;;;;;;0.88;0.88;;;;;;;19.07;37.26;104311.91;5057511;28;20033;-70
2023/02/06 01:36:19;;;;;;;1.38;1.10;;;;;;;19.08;37.46;104317.13;5054296;28;20041;-71
2023/02/06 01:38:45;;;;;;;1.20;1.08;;;;;;;19.01;37.53;104311.31;5060908;28;20110;-71
2023/02/06 01:41:11;;;;;;;1.17;0.90;;;;;;;19.08;37.52;104310.97;5059481;28;20517;-70
2023/02/06 01:43:41;;;;;;;1.00;0.95;;;;;;;19.01;37.53;104311.31;5060374;28;20036;-70
2023/02/06 01:46:07;;;;;;;0.80;0.77;;;;;;;19.00;37.56;104311.41;5060601;28;20043;-70
2023/02/06 01:48:49;;;;;;;0.85;0.82;;;;;;;18.97;37.56;104316.88;5058808;28;20038;-70
2023/02/06 01:51:17;;;;;;;1.33;0.90;;;;;;;18.98;37.68;104327.34;5057885;28;20040;-70
2023/02/06 01:53:47;;;;;;;1.50;1.15;;;;;;;19.01;37.57;104321.03;5067719;28;20156;-70
2023/02/06 01:56:18;;;;;;;1.40;1.30;;;;;;;18.93;37.65;104334.69;5060112;28;20293;-70
2023/02/06 01:58:49;;;;;;;1.00;0.90;;;;;;;18.98;37.55;104331.78;5057841;28;20028;-70
2023/02/06 02:01:15;;;;;;;1.13;1.00;;;;;;;19.00;37.41;104329.91;5075522;28;20437;-70
2023/02/06 02:03:43;;;;;;;1.00;1.00;;;;;;;18.98;37.60;104329.16;5058951;28;20048;-70
2023/02/06 02:06:15;;;;;;;1.23;1.13;;;;;;;18.94;37.50;104339.03;5059813;28;20060;-70
2023/02/06 02:08:43;;;;;;;0.68;0.68;;;;;;;18.98;37.49;104337.06;5057514;28;20064;-71
2023/02/06 02:11:16;;;;;;;0.70;0.70;;;;;;;18.88;37.54;104331.50;5058030;28;20771;-71
2023/02/06 02:13:42;;;;;;;0.70;0.70;;;;;;;18.93;37.50;104326.78;5058562;28;20063;-70
2023/02/06 02:16:53;;;;;;;1.40;1.05;;;;;;;18.95;37.62;104326.69;5058269;28;20079;-70
2023/02/06 02:19:51;;;;;;;1.10;1.00;;;;;;;18.91;37.71;104323.38;5081494;28;20048;-70
2023/02/06 02:22:48;;;;;;;1.20;1.10;;;;;;;18.92;37.74;104321.59;5060511;28;20148;-71
2023/02/06 02:25:32;;;;;;;0.80;0.80;;;;;;;18.97;37.45;104315.09;5057512;28;20132;-70
2023/02/06 02:28:31;;;;;;;1.08;0.80;;;;;;;18.92;37.56;104319.81;5061760;28;20074;-70
2023/02/06 02:31:09;;;;;;;0.85;0.82;;;;;;;18.95;37.55;104309.06;5060244;28;20044;-70
2023/02/06 02:33:43;;;;;;;0.80;0.80;;;;;;;18.91;37.53;104320.75;5062908;28;20090;-70
2023/02/06 02:36:16;;;;;;;0.90;0.90;;;;;;;18.85;37.70;104325.50;5060220;28;20028;-70
2023/02/06 02:39:16;;;;;;;1.25;1.10;;;;;;;18.82;37.62;104321.25;5056060;28;20032;-70
2023/02/06 02:41:51;;;;;;;1.13;1.02;;;;;;;18.87;37.61;104313.09;5065861;28;20032;-71
2023/02/06 02:44:38;;;;;;;0.75;0.70;;;;;;;18.91;37.51;104322.53;5072356;28;20394;-70
2023/02/06 02:47:09;;;;;;;1.42;1.30;;;;;;;18.85;37.65;104322.88;5057468;28;20032;-70
2023/02/06 02:49:37;;;;;;;1.30;1.00;;;;;;;18.82;37.78;104317.75;5060231;28;20560;-71
2023/02/06 02:52:03;;;;;;;1.08;0.98;;;;;;;18.82;37.82;104315.13;5060052;28;20085;-70
2023/02/06 02:54:29;;;;;;;1.40;1.08;;;;;;;18.85;37.75;104307.03;5075963;28;20600;-70
2023/02/06 02:57:00;;;;;;;1.23;0.90;;;;;;;18.79;37.68;104300.31;5075498;28;20037;-70
2023/02/06 02:59:32;;;;;;;0.85;0.85;;;;;;;18.79;37.76;104297.69;5059317;28;20490;-70
2023/02/06 03:02:07;;;;;;;0.98;0.98;;;;;;;18.79;37.73;104297.69;5057608;28;20028;-70
2023/02/06 03:04:43;;;;;;;1.35;0.93;;;;;;;18.82;37.68;104289.56;5059686;28;20032;-70
2023/02/06 03:07:34;;;;;;;1.38;0.85;;;;;;;18.80;37.65;104283.53;5066743;28;20071;-70
2023/02/06 03:10:18;;;;;;;0.85;0.85;;;;;;;18.80;37.51;104282.69;5055115;28;20843;-70
2023/02/06 03:12:54;;;;;;;0.93;0.93;;;;;;;18.76;37.64;104281.16;5053102;28;20032;-70
2023/02/06 03:15:35;;;;;;;0.77;0.75;;;;;;;18.74;37.86;104283.06;5058184;28;20032;-70
2023/02/06 03:18:10;;;;;;;1.10;0.98;;;;;;;18.72;37.83;104296.34;5073899;28;20055;-70
2023/02/06 03:20:40;;;;;;;0.90;0.90;;;;;;;18.66;37.91;104299.31;5058988;28;20025;-70
2023/02/06 03:23:07;;;;;;;1.23;0.77;;;;;;;18.73;37.75;104297.19;5054129;28;20047;-71
2023/02/06 03:25:37;;;;;;;0.73;0.70;;;;;;;18.67;37.77;104293.97;5059832;28;20091;-70
2023/02/06 03:28:05;;;;;;;0.73;0.73;;;;;;;18.75;37.77;104290.03;5056719;28;20090;-70
2023/02/06 03:30:33;;;;;;;1.15;1.02;;;;;;;18.68;37.85;104285.13;5059631;28;20063;-70
2023/02/06 03:33:05;;;;;;;1.10;1.00;;;;;;;18.65;37.73;104274.72;5057889;28;20391;-70
2023/02/06 03:35:33;;;;;;;0.65;0.65;;;;;;;18.68;37.67;104263.16;5056904;28;20032;-70
2023/02/06 03:38:00;;;;;;;0.70;0.70;;;;;;;18.66;37.84;104257.94;5056715;28;20032;-70
2023/02/06 03:40:27;;;;;;;1.30;1.00;;;;;;;18.71;37.62;104260.31;5054518;28;20036;-71
2023/02/06 03:42:57;;;;;;;0.73;0.55;;;;;;;18.71;37.75;104266.47;5054326;28;20131;-70
2023/02/06 03:45:26;;;;;;;;;;;;;;;18.63;37.95;104276.59;5059464;28;20032;-71
2023/02/06 03:47:54;;;;;;;1.15;1.02;;;;;;;18.62;37.81;104280.13;5060405;28;19920;-70
2023/02/06 03:50:24;;;;;;;1.88;1.42;;;;;;;18.63;37.66;104284.50;5058061;28;20040;-70
2023/02/06 03:52:52;;;;;;;0.82;0.80;;;;;;;18.60;37.98;104274.09;5059168;28;20048;-70
2023/02/06 03:55:20;;;;;;;1.00;0.98;;;;;;;18.60;37.77;104279.38;5054402;28;20041;-70
2023/02/06 03:57:51;;;;;;;1.40;1.02;;;;;;;18.61;37.66;104273.16;5059458;28;20083;-70
2023/02/06 04:00:17;;;;;;;1.38;1.05;;;;;;;18.56;37.88;104269.09;5057376;28;20520;-70
2023/02/06 04:02:46;;;;;;;0.70;0.70;;;;;;;18.58;37.87;104270.69;5059592;28;20466;-70
2023/02/06 04:05:13;;;;;;;0.88;0.88;;;;;;;18.67;37.74;104282.53;5057329;28;20044;-70
2023/02/06 04:07:39;;;;;;;1.02;1.00;;;;;;;18.58;37.68;104275.97;5059147;28;20029;-70
2023/02/06 04:10:05;;;;;;;0.75;0.75;;;;;;;18.63;37.77;104270.47;5053767;28;20519;-70
2023/02/06 04:12:30;;;;;;;1.08;0.98;;;;;;;18.55;37.86;104270.03;5057086;28;20053;-70
2023/02/06 04:14:56;;;;;;;1.50;0.75;;;;;;;18.49;37.96;104273.00;5057673;28;20044;-70
2023/02/06 04:17:21;;;;;;;1.23;0.82;;;;;;;18.50;37.89;104275.59;5057273;28;20053;-71
2023/02/06 04:19:47;;;;;;;0.93;0.88;;;;;;;18.48;37.88;104280.06;5055766;28;20028;-71
2023/02/06 04:22:15;;;;;;;0.80;0.77;;;;;;;18.53;37.70;104285.97;5051797;28;20044;-71
2023/02/06 04:24:41;;;;;;;0.88;0.88;;;;;;;18.49;37.77;104287.09;5059774;28;20191;-70
2023/02/06 04:27:12;;;;;;;1.05;1.02;;;;;;;18.52;37.90;104286.91;5055594;28;20048;-70
2023/02/06 04:29:37;;;;;;;1.20;1.10;;;;;;;18.52;37.86;104288.69;5054283;28;20047;-70
2023/02/06 04:32:04;;;;;;;0.82;0.80;;;;;;;18.47;37.97;104274.88;5057726;28;20032;-70
2023/02/06 04:34:36;;;;;;;1.40;1.00;;;;;;;18.48;37.73;104272.16;5059124;28;20043;-70
2023/02/06 04:37:04;;;;;;;1.08;0.98;;;;;;;18.57;37.79;104282.19;5054113;28;20548;-70
2023/02/06 04:39:30;;;;;;;1.13;0.95;;;;;;;18.51;37.92;104279.06;5053818;28;21807;-70
2023/02/06 04:41:55;;;;;;;1.15;1.00;;;;;;;18.53;37.71;104290.38;5054533;28;20036;-70
2023/02/06 04:44:22;;;;;;;0.70;0.70;;;;;;;18.50;37.89;104295.84;5058115;28;20809;-70
2023/02/06 04:46:47;;;;;;;0.90;0.88;;;;;;;18.47;37.92;104288.06;5054815;28;20140;-70
2023/02/06 04:49:13;;;;;;;0.60;0.60;;;;;;;18.52;37.79;104299.25;5060381;28;20398;-70
2023/02/06 04:51:39;;;;;;;1.58;1.25;;;;;;;18.45;37.85;104296.09;5053997;28;20055;-70
2023/02/06 04:54:05;;;;;;;0.85;0.70;;;;;;;18.39;37.96;104302.56;5051610;28;20512;-70
2023/02/06 04:56:31;;;;;;;0.80;0.60;;;;;;;18.47;37.79;104293.34;5055078;28;20044;-70
2023/02/06 04:58:57;;;;;;;0.80;0.73;;;;;;;18.51;37.91;104290.47;5058951;28;20040;-71
2023/02/06 05:01:23;;;;;;;0.93;0.93;;;;;;;18.47;37.86;104288.94;5055591;28;20372;-70
2023/02/06 05:03:48;;;;;;;1.05;0.82;;;;;;;18.46;37.87;104289.88;5056457;28;20040;-71
2023/02/06 05:06:14;;;;;;;0.65;0.65;;;;;;;18.52;37.83;104297.47;5048543;28;20491;-71
2023/02/06 05:08:40;;;;;;;1.13;0.73;;;;;;;18.52;37.84;104300.09;5055118;28;20101;-70
2023/02/06 05:11:06;;;;;;;1.35;1.05;;;;;;;18.52;37.81;104293.97;5062293;28;20075;-70
2023/02/06 05:13:33;;;;;;;0.68;0.68;;;;;;;18.51;37.81;104303.69;5065520;28;20040;-70
2023/02/06 05:16:10;;;;;;;0.80;0.80;;;;;;;18.56;37.62;104306.03;5063358;28;20063;-70
2023/02/06 05:18:36;;;;;;;1.00;0.93;;;;;;;18.48;37.96;104311.75;5062027;28;20117;-71
2023/02/06 05:21:02;;;;;;;0.82;0.80;;;;;;;18.42;37.97;104297.13;5061232;28;20344;-70
2023/02/06 05:23:28;;;;;;;0.73;0.73;;;;;;;18.43;37.97;104293.53;5061005;28;20029;-70
2023/02/06 05:25:53;;;;;;;0.88;0.80;;;;;;;18.54;37.80;104295.56;5060680;28;20364;-70
2023/02/06 05:28:19;;;;;;;0.88;0.88;;;;;;;18.46;37.97;104295.16;5063033;28;20040;-70
2023/02/06 05:30:44;;;;;;;0.70;0.45;;;;;;;18.42;38.07;104299.75;5061960;28;20045;-70
2023/02/06 05:33:10;;;;;;;1.15;0.60;;;;;;;18.48;37.83;104297.69;5063057;28;20040;-70
2023/02/06 05:35:37;;;;;;;1.02;0.93;;;;;;;18.41;38.03;104289.28;5059054;28;20669;-70
2023/02/06 05:38:02;;;;;;;0.85;0.77;;;;;;;18.53;37.82;104296.53;5063929;28;20134;-71
2023/02/06 05:40:28;;;;;;;0.80;0.80;;;;;;;18.47;37.98;104298.63;5057257;28;20036;-70
2023/02/06 05:42:53;;;;;;;0.73;0.73;;;;;;;18.44;38.27;104291.75;5062850;28;20096;-70
2023/02/06 05:45:19;;;;;;;0.60;0.60;;;;;;;18.48;37.77;104289.78;5060405;28;20052;-71
2023/02/06 05:47:44;;;;;;;0.90;0.70;;;;;;;18.46;37.99;104289.03;5062171;28;20380;-71
2023/02/06 05:50:10;;;;;;;0.80;0.80;;;;;;;18.42;38.03;104272.50;5060250;28;20053;-71
2023/02/06 05:52:35;;;;;;;0.80;0.80;;;;;;;18.43;38.04;104267.16;5059160;28;20402;-70
2023/02/06 05:55:01;;;;;;;0.95;0.70;;;;;;;18.45;38.00;104263.56;5060341;28;20032;-70
2023/02/06 05:57:26;;;;;;;1.10;0.90;;;;;;;18.45;38.08;104253.00;5059355;28;20040;-70
2023/02/06 05:59:52;;;;;;;1.15;1.05;;;;;;;18.42;38.08;104269.88;5060064;28;20040;-70
2023/02/06 06:02:17;;;;;;;0.60;0.60;;;;;;;18.45;37.92;104259.13;5060068;28;20036;-70
2023/02/06 06:04:43;;;;;;;0.70;0.70;;;;;;;18.48;38.12;104248.41;5058197;28;20044;-70
2023/02/06 06:07:09;;;;;;;0.80;0.80;;;;;;;18.49;37.94;104243.97;5060888;28;20044;-70
2023/02/06 06:09:34;;;;;;;0.82;0.77;;;;;;;18.45;38.23;104238.03;5057216;28;20064;-70
2023/02/06 06:12:00;;;;;;;1.45;1.13;;;;;;;18.49;38.17;104234.28;5061558;28;20597;-70
2023/02/06 06:14:26;;;;;;;0.70;0.70;;;;;;;18.45;38.18;104214.28;5059167;28;20040;-71
2023/02/06 06:16:51;;;;;;;0.63;0.63;;;;;;;18.48;38.10;104221.16;5060868;28;20872;-70
2023/02/06 06:19:17;;;;;;;0.65;0.65;;;;;;;18.48;38.22;104234.34;5057538;28;20051;-70
2023/02/06 06:21:43;;;;;;;0.80;0.70;;;;;;;18.48;38.09;104235.22;5057285;28;20044;-70
2023/02/06 06:24:08;;;;;;;0.77;0.77;;;;;;;18.49;38.08;104244.84;5058786;28;20349;-70
2023/02/06 06:26:34;;;;;;;1.23;0.88;;;;;;;18.45;38.30;104238.03;5059753;28;20040;-70
2023/02/06 06:28:59;;;;;;;0.75;0.75;;;;;;;18.50;38.13;104243.06;5059272;28;20106;-70
2023/02/06 06:31:25;;;;;;;1.20;0.80;;;;;;;18.47;38.03;104237.94;5061993;28;20051;-70
2023/02/06 06:33:51;;;;;;;0.80;0.80;;;;;;;18.53;38.01;104237.59;5056430;28;20044;-70
2023/02/06 06:36:17;;;;;;;0.85;0.70;;;;;;;18.55;38.15;104236.56;5062857;28;20052;-70
2023/02/06 06:38:42;;;;;;;0.80;0.70;;;;;;;18.52;38.29;104228.00;5057363;28;20474;-71
2023/02/06 06:41:08;;;;;;;0.80;0.80;;;;;;;18.47;38.26;104230.03;5059778;28;20098;-70
2023/02/06 06:43:33;;;;;;;0.80;0.60;;;;;;;18.47;38.10;104225.59;5057660;28;20437;-70
2023/02/06 06:46:00;;;;;;;0.82;0.75;;;;;;;19.44;36.64;104236.56;5059604;28;20059;-70
2023/02/06 06:48:26;;;;;;;0.75;0.75;;;;;;;20.33;34.81;104242.34;5052552;28;20090;-70
2023/02/06 06:50:52;;;;;;;0.85;0.73;;;;;;;20.81;34.16;104239.09;5059152;28;20040;-70
2023/02/06 06:53:17;;;;;;;0.80;0.75;;;;;;;20.77;34.35;104240.25;5056304;28;20048;-70
2023/02/06 06:55:43;;;;;;;1.17;0.90;;;;;;;20.80;34.39;104228.59;5060894;28;20036;-70
2023/02/06 06:58:09;;;;;;;0.85;0.70;;;;;;;20.99;34.33;104231.69;5060123;28;20040;-71
2023/02/06 07:00:34;;;;;;;0.88;0.80;;;;;;;20.98;34.17;104223.84;5061387;28;20048;-70
2023/02/06 07:03:00;;;;;;;0.88;0.77;;;;;;;21.11;34.14;104216.75;5055064;28;20040;-70
2023/02/06 07:05:25;;;;;;;0.70;0.57;;;;;;;21.37;33.62;104226.44;5059246;28;20076;-70
2023/02/06 07:07:51;;;;;;;1.08;0.80;;;;;;;21.49;33.50;104227.34;5057907;28;20040;-70
2023/02/06 07:10:17;;;;;;;0.68;0.63;;;;;;;21.49;33.24;104230.00;5058655;28;20411;-70
2023/02/06 07:12:42;;;;;;;0.75;0.70;;;;;;;21.38;33.80;104224.63;5058331;28;20219;-70
2023/02/06 07:15:08;;;;;;;0.70;0.68;;;;;;;21.42;33.56;104221.66;5055923;28;20458;-70
2023/02/06 07:17:35;;;;;;;0.70;0.70;;;;;;;21.36;33.81;104214.13;5056214;28;20048;-70
2023/02/06 07:20:01;;;;;;;0.55;0.55;;;;;;;21.32;33.76;104215.28;5056173;28;20041;-71
2023/02/06 07:22:26;;;;;;;0.93;0.88;;;;;;;21.26;33.84;104210.41;5058721;28;20087;-70
2023/02/06 07:24:52;;;;;;;0.80;0.80;;;;;;;21.29;33.96;104222.59;5059306;28;20055;-70
2023/02/06 07:27:18;;;;;;;0.63;0.63;;;;;;;21.19;34.09;104214.44;5058617;28;20045;-70
2023/02/06 07:29:44;;;;;;;0.90;0.70;;;;;;;21.10;34.26;104213.25;5058885;28;20033;-70
2023/02/06 07:32:09;;;;;;;1.08;0.80;;;;;;;21.06;34.25;104211.78;5062685;28;20040;-70
2023/02/06 07:34:36;;;;;;;0.73;0.70;;;;;;;21.07;34.24;104210.84;5064377;28;20100;-70
2023/02/06 07:37:02;;;;;;;0.95;0.80;;;;;;;20.97;34.27;104211.56;5057229;28;20033;-70
2023/02/06 07:39:28;;;;;;;1.27;0.90;;;;;;;20.92;34.50;104211.88;5069092;28;20044;-71
2023/02/06 07:41:53;;;;;;;1.00;0.90;;;;;;;20.82;34.74;104226.69;5055110;28;20036;-71
2023/02/06 07:44:20;;;;;;;0.60;0.60;;;;;;;20.71;34.87;104237.19;5058335;28;20033;-70
2023/02/06 07:46:46;;;;;;;1.15;0.60;;;;;;;20.45;35.17;104242.41;5055924;28;20113;-70
2023/02/06 07:49:13;;;;;;;1.10;0.73;;;;;;;20.41;35.33;104243.56;5058328;28;20056;-70
2023/02/06 07:51:40;;;;;;;1.42;1.00;;;;;;;20.33;35.50;104235.25;5056888;28;20048;-71
2023/02/06 07:54:06;;;;;;;0.98;0.98;;;;;;;20.21;35.69;104230.75;5054565;28;20148;-71
2023/02/06 07:56:31;;;;;;;0.77;0.63;;;;;;;20.27;35.53;104230.34;5057425;28;20478;-70
2023/02/06 07:58:57;;;;;;;0.85;0.85;;;;;;;20.06;36.06;104237.06;5055789;28;20061;-70
2023/02/06 08:01:24;;;;;;;1.40;1.00;;;;;;;20.12;35.94;104240.16;5057784;28;20364;-70
2023/02/06 08:03:52;;;;;;;0.88;0.70;;;;;;;19.96;36.18;104234.16;5059895;28;20047;-71
2023/02/06 08:06:18;;;;;;;0.85;0.85;;;;;;;19.87;36.37;104245.31;5054283;28;20048;-71
2023/02/06 08:08:44;;;;;;;0.70;0.70;;;;;;;20.48;35.29;104244.03;5057861;28;20038;-73
2023/02/06 08:11:14;;;;;;;0.63;0.50;;;;;;;21.14;34.05;104235.09;5055964;28;20032;-72
2023/02/06 08:13:41;;;;;;;1.27;1.05;;;;;;;21.42;33.63;104242.00;5057189;28;20032;-71
2023/02/06 08:16:10;;;;;;;0.93;0.77;;;;;;;21.37;33.71;104244.16;5054836;28;20881;-72
2023/02/06 08:18:36;;;;;;;0.85;0.85;;;;;;;21.56;33.46;104243.69;5053792;28;20057;-71
2023/02/06 08:21:09;;;;;;;0.70;0.70;;;;;;;21.58;33.63;104245.28;5052304;28;20039;-72
2023/02/06 08:23:35;;;;;;;1.08;0.90;;;;;;;21.52;33.67;104240.38;5055695;28;20043;-72
2023/02/06 08:26:08;;;;;;;0.95;0.95;;;;;;;21.48;33.64;104251.31;5053972;28;20407;-73
2023/02/06 08:28:35;;;;;;;0.65;0.65;;;;;;;21.40;33.80;104249.22;5058302;28;20498;-71
2023/02/06 08:31:09;;;;;;;0.80;0.80;;;;;;;21.34;33.71;104239.03;5048993;28;20048;-72
2023/02/06 08:33:34;;;;;;;0.82;0.70;;;;;;;21.29;33.97;104234.06;5054488;28;20079;-72
2023/02/06 08:36:04;;;;;;;0.93;0.93;;;;;;;21.26;33.98;104242.22;5061696;28;20051;-72
2023/02/06 08:38:29;;;;;;;0.70;0.65;;;;;;;21.15;34.27;104242.09;5058829;28;20081;-72
2023/02/06 08:40:55;;;;;;;0.65;0.65;;;;;;;20.97;34.50;104251.31;5050522;28;20052;-72
2023/02/06 08:43:21;;;;;;;1.08;0.77;;;;;;;21.00;34.27;104246.63;5057049;28;20119;-72
2023/02/06 08:45:48;;;;;;;0.75;0.75;;;;;;;21.07;34.31;104253.22;5061821;28;20060;-72
2023/02/06 08:48:14;;;;;;;0.68;0.65;;;;;;;20.89;34.52;104254.47;5055965;28;20466;-72
2023/02/06 08:50:40;;;;;;;0.82;0.77;;;;;;;20.76;34.93;104251.81;5058995;28;20044;-71
2023/02/06 08:53:05;;;;;;;1.10;1.00;;;;;;;20.64;35.19;104252.63;5056204;28;20071;-72
2023/02/06 08:55:31;;;;;;;0.70;0.70;;;;;;;20.44;35.36;104253.94;5059846;28;20036;-72
2023/02/06 08:57:56;;;;;;;0.93;0.60;;;;;;;20.47;35.29;104253.78;5061449;28;20370;-72
2023/02/06 09:00:22;;;;;;;1.20;0.70;;;;;;;20.34;35.54;104258.13;5055154;28;20056;-72
2023/02/06 09:02:48;;;;;;;0.77;0.75;;;;;;;20.22;35.80;104258.94;5058772;28;20036;-72
2023/02/06 09:05:14;;;;;;;0.80;0.80;;;;;;;19.96;36.36;104260.63;5059895;28;20462;-71
2023/02/06 09:07:40;;;;;;;1.25;0.90;;;;;;;20.10;36.04;104249.97;5061935;28;20051;-71
2023/02/06 09:10:06;;;;;;;0.98;0.77;;;;;;;20.84;34.80;104251.31;5058937;28;20115;-71
2023/02/06 09:12:31;;;;;;;0.60;0.60;;;;;;;21.15;34.03;104242.09;5061177;28;20051;-71
2023/02/06 09:14:57;;;;;;;0.75;0.60;;;;;;;21.35;33.65;104246.03;5061630;28;20033;-71
2023/02/06 09:17:22;;;;;;;1.15;0.95;;;;;;;21.40;33.80;104239.47;5059737;28;20781;-72
2023/02/06 09:19:48;;;;;;;0.73;0.73;;;;;;;21.32;33.89;104233.00;5061012;28;20032;-71
2023/02/06 09:22:13;;;;;;;1.20;0.80;;;;;;;21.21;33.64;104228.44;5058594;28;20043;-70
2023/02/06 09:24:39;;;;;;;1.10;1.00;;;;;;;21.07;34.35;104249.72;5060882;28;20036;-71
2023/02/06 09:27:04;;;;;;;1.15;0.70;;;;;;;21.00;34.25;104256.38;5059375;28;20419;-71
2023/02/06 09:29:31;;;;;;;1.58;1.00;;;;;;;20.96;34.51;104247.81;5057938;28;20048;-71
2023/02/06 09:31:57;;;;;;;0.93;0.90;;;;;;;20.81;34.66;104256.78;5057150;28;20036;-70
2023/02/06 09:34:24;;;;;;;1.00;0.77;;;;;;;20.69;34.85;104247.88;5056837;28;20089;-72
2023/02/06 09:36:51;;;;;;;1.38;1.13;;;;;;;20.71;34.79;104247.78;5055174;28;20117;-72
2023/02/06 09:39:17;;;;;;;0.95;0.90;;;;;;;20.61;34.97;104242.25;5060217;28;20048;-71
2023/02/06 09:41:50;;;;;;;1.30;0.80;;;;;;;20.52;35.12;104261.41;5058343;28;20044;-73
2023/02/06 09:44:42;;;;;;;0.73;0.73;;;;;;;20.18;35.78;104263.56;5057780;28;20119;-72
2023/02/06 09:47:25;;;;;;;1.00;0.88;;;;;;;20.18;35.80;104268.88;5050460;28;20163;-72
2023/02/06 09:50:06;;;;;;;1.10;0.88;;;;;;;20.80;34.82;104263.88;5056990;28;20032;-72
2023/02/06 09:52:51;;;;;;;1.00;0.90;;;;;;;21.15;33.96;104265.09;5055235;28;20540;-72
2023/02/06 09:55:28;;;;;;;1.15;1.02;;;;;;;21.20;33.94;104266.50;5057628;28;20414;-72
2023/02/06 09:58:22;;;;;;;1.17;1.08;;;;;;;21.26;33.88;104252.00;5057516;28;20494;-72
2023/02/06 10:00:51;;;;;;;1.20;1.00;;;;;;;21.21;34.02;104262.03;5057397;28;20044;-72
2023/02/06 10:03:38;;;;;;;1.33;0.95;;;;;;;21.08;34.22;104256.72;5058781;28;20038;-72
2023/02/06 10:06:18;;;;;;;1.40;0.95;;;;;;;21.12;34.03;104261.69;5053757;28;20854;-72
2023/02/06 10:08:59;;;;;;;1.08;0.90;;;;;;;20.79;34.82;104267.50;5072167;28;20095;-74
2023/02/06 10:11:40;;;;;;;0.82;0.80;;;;;;;20.78;34.73;104257.00;5060601;28;20047;-72
2023/02/06 10:14:17;;;;;;;1.20;0.90;;;;;;;20.72;34.86;104266.22;5056292;28;20036;-72
2023/02/06 10:16:49;;;;;;;0.85;0.77;;;;;;;20.62;35.06;104258.97;5057467;28;20876;-72
2023/02/06 10:19:31;;;;;;;0.88;0.85;;;;;;;20.31;35.64;104258.34;5057586;28;20028;-73
2023/02/06 10:22:05;;;;;;;0.68;0.68;;;;;;;20.20;36.00;104255.53;5066338;28;20036;-73
2023/02/06 10:24:46;;;;;;;1.50;1.00;;;;;;;20.32;35.61;104248.59;5054996;28;20036;-74
2023/02/06 10:27:13;;;;;;;1.42;1.33;;;;;;;21.03;34.05;104235.84;5012930;28;20501;-68
2023/02/06 10:29:42;;;;;;;1.58;1.27;;;;;;;20.99;34.30;104226.38;5059540;28;20048;-69
2023/02/06 10:32:19;;;;;;;1.20;1.10;;;;;;;21.37;33.94;104214.97;5051764;28;20033;-69
2023/02/06 10:35:09;;;;;;;1.45;1.02;;;;;;;21.86;33.27;104216.75;5056601;28;20043;-68
2023/02/06 10:38:16;;;;;;;1.02;0.98;;;;;;;21.97;33.05;104215.00;5054783;28;21924;-68
2023/02/06 10:40:58;;;;;;;1.50;1.20;;;;;;;22.01;32.66;104223.59;5035071;28;20033;-68
2023/02/06 10:43:32;;;;;;;1.05;1.05;;;;;;;21.97;32.73;104220.31;5031700;28;20052;-68
2023/02/06 10:46:29;;;;;;;1.33;0.93;;;;;;;21.92;33.02;104221.63;5062555;28;20041;-68
2023/02/06 10:49:05;;;;;;;1.30;1.00;;;;;;;21.87;32.97;104219.28;5061206;28;20127;-68
2023/02/06 10:51:42;;;;;;;1.45;0.95;;;;;;;21.81;33.41;104219.75;5055301;28;20176;-68
2023/02/06 10:54:33;;;;;;;1.25;1.10;;;;;;;21.83;32.99;104223.13;5063512;28;20443;-68
2023/02/06 10:56:59;;;;;;;1.10;1.00;;;;;;;21.79;33.44;104228.78;5056516;28;20041;-68
2023/02/06 10:59:32;;;;;;;0.93;0.90;;;;;;;21.76;33.31;104224.53;5030734;28;20091;-68
2023/02/06 11:02:32;;;;;;;1.25;0.93;;;;;;;21.74;33.43;104228.28;5057978;28;20126;-68
2023/02/06 11:05:09;;;;;;;;;;;;;;;21.72;33.24;104223.03;5031358;28;20464;-68
2023/02/06 11:07:42;;;;;;;1.17;0.80;;;;;;;21.69;33.31;104228.56;5052686;28;19923;-68
2023/02/06 11:10:13;;;;;;;1.10;0.90;;;;;;;21.69;33.34;104223.28;5056344;28;20494;-68
2023/02/06 11:13:05;;;;;;;1.58;1.10;;;;;;;21.66;33.35;104224.34;5055143;28;20102;-68
2023/02/06 11:15:56;;;;;;;1.45;1.02;;;;;;;21.64;33.73;104214.81;5040410;28;20141;-68
2023/02/06 11:18:27;;;;;;;1.00;0.70;;;;;;;21.62;33.31;104217.56;5043105;28;20041;-68
2023/02/06 11:20:53;;;;;;;1.20;1.10;;;;;;;21.63;33.52;104218.41;5054385;28;20117;-68
2023/02/06 11:23:25;;;;;;;1.20;0.85;;;;;;;21.63;33.28;104218.41;5056675;28;20409;-68
2023/02/06 11:26:14;;;;;;;0.90;0.90;;;;;;;21.62;33.38;104219.38;5057495;28;20040;-68
2023/02/06 11:28:51;;;;;;;0.60;0.60;;;;;;;21.60;33.47;104206.22;5057659;28;20064;-68
2023/02/06 11:31:20;;;;;;;1.45;0.98;;;;;;;21.62;33.47;104203.47;5053748;28;20833;-68
2023/02/06 11:33:51;;;;;;;1.40;1.15;;;;;;;21.59;33.43;104206.34;5024814;28;20782;-68
2023/02/06 11:36:29;;;;;;;0.95;0.65;;;;;;;21.60;33.62;104194.78;5055640;28;20755;-68
2023/02/06 11:38:59;;;;;;;1.02;0.70;;;;;;;21.59;33.31;104195.72;5054125;28;20036;-68